createdAt,value
2018-04-14T00:01:21.507Z,89.02
2018-04-14T00:03:49.046Z,89.12
2018-04-14T00:06:16.881Z,88.80
2018-04-14T00:08:44.746Z,89.04
2018-04-14T00:11:12.272Z,88.59
2018-04-14T00:13:40.074Z,87.51
2018-04-14T00:16:07.614Z,87.94
2018-04-14T00:18:35.141Z,87.40
2018-04-14T00:21:02.758Z,87.99
2018-04-14T00:23:30.521Z,88.33
2018-04-14T00:25:58.904Z,88.32
2018-04-14T00:28:26.776Z,88.22
2018-04-14T00:30:54.285Z,88.23
2018-04-14T00:33:21.807Z,87.34
2018-04-14T00:35:49.336Z,86.75
2018-04-14T00:38:16.851Z,88.28
2018-04-14T00:40:44.669Z,87.77
2018-04-14T00:43:12.252Z,88.07
2018-04-14T00:45:39.765Z,87.61
2018-04-14T00:48:07.686Z,88.01
2018-04-14T00:50:35.276Z,87.01
2018-04-14T00:53:15.106Z,88.10
2018-04-14T00:55:42.655Z,88.47
2018-04-14T00:58:10.176Z,88.35
2018-04-14T01:00:37.718Z,87.81
2018-04-14T01:03:05.343Z,88.92
2018-04-14T01:05:32.859Z,89.23
2018-04-14T01:08:00.378Z,89.60
2018-04-14T01:10:27.938Z,89.87
2018-04-14T01:12:55.463Z,89.41
2018-04-14T01:15:22.983Z,90.24
2018-04-14T01:17:50.514Z,90.82
2018-04-14T01:20:18.042Z,91.02
2018-04-14T01:22:45.726Z,91.18
2018-04-14T01:25:13.266Z,90.34
2018-04-14T01:27:40.768Z,90.75
2018-04-14T01:30:08.631Z,90.62
2018-04-14T01:32:36.189Z,90.43
2018-04-14T01:35:03.708Z,90.64
2018-04-14T01:37:31.205Z,90.91
2018-04-14T01:39:59.423Z,91.04
2018-04-14T01:42:27.208Z,91.58
2018-04-14T01:44:54.728Z,91.55
2018-04-14T01:47:22.257Z,91.13
2018-04-14T01:49:50.094Z,91.16
2018-04-14T01:52:17.606Z,91.95
2018-04-14T01:54:45.139Z,91.32
2018-04-14T01:57:12.646Z,91.05
2018-04-14T01:59:40.162Z,91.48
2018-04-14T02:02:07.693Z,91.32
2018-04-14T02:04:35.192Z,91.41
2018-04-14T02:07:41.052Z,91.22
2018-04-14T02:10:08.881Z,90.68
2018-04-14T02:12:36.658Z,90.63
2018-04-14T02:15:04.521Z,90.91
2018-04-14T02:17:32.040Z,90.75
2018-04-14T02:19:59.537Z,90.87
2018-04-14T02:22:27.073Z,90.83
2018-04-14T02:24:54.635Z,91.03
2018-04-14T02:27:22.433Z,90.80
2018-04-14T02:29:49.978Z,90.69
2018-04-14T02:32:17.521Z,91.25
2018-04-14T02:34:45.049Z,91.24
2018-04-14T02:37:12.604Z,90.54
2018-04-14T02:39:40.143Z,89.63
2018-04-14T02:42:07.693Z,90.13
2018-04-14T02:44:35.801Z,90.21
2018-04-14T02:47:03.359Z,90.36
2018-04-14T02:49:30.888Z,90.44
2018-04-14T02:51:58.754Z,90.40
2018-04-14T02:54:26.288Z,90.66
2018-04-14T02:56:53.865Z,89.82
2018-04-14T02:59:21.471Z,90.29
2018-04-14T03:01:49.033Z,90.30
2018-04-14T03:04:16.548Z,89.69
2018-04-14T03:06:44.094Z,89.45
2018-04-14T03:09:11.614Z,89.99
2018-04-14T03:11:39.127Z,90.60
2018-04-14T03:14:06.677Z,90.13
2018-04-14T03:16:34.302Z,90.16
2018-04-14T03:19:01.808Z,90.29
2018-04-14T03:21:29.339Z,90.11
2018-04-14T03:23:56.862Z,90.75
2018-04-14T03:26:24.367Z,90.46
2018-04-14T03:28:51.909Z,90.77
2018-04-14T03:31:19.482Z,91.01
2018-04-14T03:33:46.945Z,90.52
2018-04-14T03:36:14.472Z,91.51
2018-04-14T03:38:41.993Z,91.36
2018-04-14T03:41:09.520Z,91.54
2018-04-14T03:43:37.066Z,91.11
2018-04-14T03:46:04.875Z,91.46
2018-04-14T03:48:32.649Z,91.42
2018-04-14T03:51:00.184Z,91.40
2018-04-14T03:53:27.712Z,91.83
2018-04-14T03:55:55.226Z,92.00
2018-04-14T03:58:22.759Z,91.44
2018-04-14T04:00:50.295Z,91.46
2018-04-14T04:03:17.800Z,91.93
2018-04-14T04:05:45.336Z,92.12
2018-04-14T04:08:12.853Z,92.02
2018-04-14T04:10:40.688Z,92.22
2018-04-14T04:13:08.337Z,91.95
2018-04-14T04:15:36.780Z,91.65
2018-04-14T04:18:04.296Z,91.79
2018-04-14T04:20:56.743Z,92.04
2018-04-14T04:23:36.478Z,91.70
2018-04-14T04:26:04.046Z,91.97
2018-04-14T04:28:31.915Z,91.83
2018-04-14T04:30:59.448Z,91.75
2018-04-14T04:33:26.991Z,92.05
2018-04-14T04:35:54.493Z,92.25
2018-04-14T04:38:22.007Z,92.72
2018-04-14T04:40:49.606Z,92.45
2018-04-14T04:43:17.118Z,92.60
2018-04-14T04:45:44.646Z,92.91
2018-04-14T04:48:12.193Z,92.89
2018-04-14T04:50:39.707Z,92.52
2018-04-14T04:53:07.244Z,93.06
2018-04-14T04:55:35.083Z,93.38
2018-04-14T04:58:02.588Z,92.93
2018-04-14T05:00:30.146Z,92.84
2018-04-14T05:02:57.651Z,92.48
2018-04-14T05:05:25.187Z,92.68
2018-04-14T05:07:52.701Z,92.51
2018-04-14T05:10:20.544Z,92.39
2018-04-14T05:12:48.058Z,92.16
2018-04-14T05:15:15.586Z,92.60
2018-04-14T05:17:43.116Z,92.29
2018-04-14T05:20:10.637Z,92.14
2018-04-14T05:22:38.225Z,92.33
2018-04-14T05:25:05.739Z,91.82
2018-04-14T05:27:33.399Z,92.00
2018-04-14T05:30:00.946Z,91.63
2018-04-14T05:32:28.608Z,91.67
2018-04-14T05:34:56.573Z,91.23
2018-04-14T05:37:24.343Z,91.48
2018-04-14T05:39:51.898Z,91.85
2018-04-14T05:42:19.670Z,91.85
2018-04-14T05:44:47.528Z,91.79
2018-04-14T05:47:15.068Z,92.54
2018-04-14T05:49:42.957Z,92.37
2018-04-14T05:52:10.499Z,91.73
2018-04-14T05:54:38.020Z,91.69
2018-04-14T05:57:05.564Z,91.63
2018-04-14T05:59:33.119Z,91.39
2018-04-14T06:02:00.638Z,91.06
2018-04-14T06:04:28.218Z,91.23
2018-04-14T06:06:55.710Z,91.27
2018-04-14T06:09:23.268Z,91.20
2018-04-14T06:11:50.787Z,91.11
2018-04-14T06:14:18.307Z,91.46
2018-04-14T06:16:45.928Z,91.51
2018-04-14T06:19:13.427Z,91.19
2018-04-14T06:21:40.969Z,91.64
2018-04-14T06:24:09.316Z,91.80
2018-04-14T06:26:36.993Z,91.78
2018-04-14T06:29:04.535Z,91.86
2018-04-14T06:31:32.019Z,91.66
2018-04-14T06:33:59.870Z,91.53
2018-04-14T06:36:27.416Z,91.74
2018-04-14T06:38:54.937Z,91.35
2018-04-14T06:41:22.755Z,91.30
2018-04-14T06:43:50.267Z,91.21
2018-04-14T06:46:17.833Z,90.99
2018-04-14T06:48:45.372Z,90.87
2018-04-14T06:51:12.892Z,90.70
2018-04-14T06:53:40.532Z,90.90
2018-04-14T06:56:08.205Z,90.67
2018-04-14T06:58:35.895Z,90.73
2018-04-14T07:01:03.433Z,90.22
2018-04-14T07:03:31.208Z,89.35
2018-04-14T07:05:58.750Z,89.14
2018-04-14T07:08:26.278Z,88.72
2018-04-14T07:10:53.846Z,88.75
2018-04-14T07:13:21.468Z,89.11
2018-04-14T07:15:48.988Z,88.14
2018-04-14T07:18:16.589Z,87.50
2018-04-14T07:20:44.334Z,87.86
2018-04-14T07:23:11.929Z,88.03
2018-04-14T07:25:39.488Z,87.68
2018-04-14T07:28:07.034Z,87.61
2018-04-14T07:30:34.582Z,87.29
2018-04-14T07:33:02.451Z,86.36
2018-04-14T07:35:30.217Z,86.62
2018-04-14T07:37:58.150Z,86.80
2018-04-14T07:40:25.764Z,85.47
2018-04-14T07:42:53.443Z,85.01
2018-04-14T07:45:20.996Z,84.59
2018-04-14T07:47:49.456Z,83.90
2018-04-14T07:50:18.137Z,83.34
2018-04-14T07:52:45.774Z,83.25
2018-04-14T07:55:13.362Z,83.29
2018-04-14T07:57:40.914Z,82.75
2018-04-14T08:00:08.460Z,82.84
2018-04-14T08:02:36.023Z,83.14
2018-04-14T08:05:03.569Z,83.65
2018-04-14T08:07:31.130Z,83.90
2018-04-14T08:09:58.778Z,84.31
2018-04-14T08:12:26.338Z,84.15
2018-04-14T08:14:53.904Z,83.81
2018-04-14T08:17:21.426Z,84.48
2018-04-14T08:19:48.987Z,84.17
2018-04-14T08:22:16.518Z,83.99
2018-04-14T08:24:44.064Z,83.72
2018-04-14T08:27:11.699Z,82.67
2018-04-14T08:29:39.243Z,82.70
2018-04-14T08:32:06.855Z,82.83
2018-04-14T08:34:34.905Z,81.67
2018-04-14T08:37:02.513Z,80.71
2018-04-14T08:39:30.045Z,82.14
2018-04-14T08:41:57.638Z,82.13
2018-04-14T08:44:25.243Z,81.95
2018-04-14T08:46:52.818Z,81.59
2018-04-14T08:49:20.356Z,81.67
2018-04-14T08:51:47.879Z,81.30
2018-04-14T08:54:15.446Z,79.97
2018-04-14T08:56:42.974Z,80.05
2018-04-14T08:59:10.516Z,80.29
2018-04-14T09:01:38.212Z,79.98
2018-04-14T09:04:06.309Z,80.45
2018-04-14T09:06:33.907Z,80.25
2018-04-14T09:09:01.552Z,80.25
2018-04-14T09:11:29.107Z,80.80
2018-04-14T09:13:56.640Z,79.68
2018-04-14T09:16:24.151Z,79.17
2018-04-14T09:18:52.078Z,79.31
2018-04-14T09:21:19.623Z,77.89
2018-04-14T09:23:47.496Z,79.19
2018-04-14T09:26:15.011Z,77.83
2018-04-14T09:28:42.536Z,76.84
2018-04-14T09:31:10.067Z,77.19
2018-04-14T09:33:37.583Z,76.08
2018-04-14T09:36:05.201Z,74.63
2018-04-14T09:38:32.744Z,73.88
2018-04-14T09:41:00.317Z,70.04
2018-04-14T09:43:28.004Z,69.88
2018-04-14T09:45:55.847Z,70.12
2018-04-14T09:48:23.383Z,70.16
2018-04-14T09:50:50.960Z,71.20
2018-04-14T09:53:18.478Z,70.11
2018-04-14T09:55:46.028Z,70.47
2018-04-14T09:58:14.176Z,70.96
2018-04-14T10:00:47.588Z,70.10
2018-04-14T10:03:20.922Z,69.01
2018-04-14T10:05:50.450Z,69.30
2018-04-14T10:08:18.245Z,69.31
2018-04-14T10:10:45.803Z,69.05
2018-04-14T10:13:13.330Z,67.72
2018-04-14T10:15:40.847Z,66.98
2018-04-14T10:18:08.594Z,66.88
2018-04-14T10:20:36.120Z,65.24
2018-04-14T10:23:03.665Z,65.08
2018-04-14T10:25:31.198Z,63.27
2018-04-14T10:27:58.724Z,62.21
2018-04-14T10:30:26.273Z,61.63
2018-04-14T10:32:53.838Z,61.24
2018-04-14T10:35:21.440Z,61.08
2018-04-14T10:37:49.071Z,60.16
2018-04-14T10:40:16.565Z,59.91
2018-04-14T10:42:44.131Z,61.06
2018-04-14T10:45:11.662Z,62.26
2018-04-14T10:47:39.239Z,62.47
2018-04-14T10:50:06.797Z,62.56
2018-04-14T10:52:34.348Z,61.80
2018-04-14T10:55:01.925Z,61.16
2018-04-14T10:57:29.518Z,61.85
2018-04-14T10:59:57.122Z,59.98
2018-04-14T11:02:25.179Z,60.91
2018-04-14T11:04:52.775Z,58.89
2018-04-14T11:07:20.276Z,56.03
2018-04-14T11:09:47.843Z,52.44
2018-04-14T11:12:15.405Z,51.00
2018-04-14T11:14:42.945Z,50.09
2018-04-14T11:17:10.526Z,52.94
2018-04-14T11:19:38.090Z,55.02
2018-04-14T11:22:05.709Z,56.76
2018-04-14T11:24:33.308Z,57.98
2018-04-14T11:27:00.976Z,58.58
2018-04-14T11:29:28.501Z,58.44
2018-04-14T11:31:56.037Z,59.00
2018-04-14T11:34:23.576Z,59.45
2018-04-14T11:36:51.150Z,59.83
2018-04-14T11:39:18.694Z,60.31
2018-04-14T11:41:46.489Z,60.38
2018-04-14T11:44:14.324Z,60.42
2018-04-14T11:46:41.847Z,60.54
2018-04-14T11:49:09.463Z,61.16
2018-04-14T11:51:37.012Z,61.99
2018-04-14T11:54:04.542Z,61.92
2018-04-14T11:56:32.124Z,62.28
2018-04-14T11:58:59.657Z,62.91
2018-04-14T12:01:27.227Z,63.50
2018-04-14T12:03:55.015Z,64.65
2018-04-14T12:06:22.618Z,66.45
2018-04-14T12:08:50.270Z,67.88
2018-04-14T12:11:17.831Z,70.08
2018-04-14T12:13:45.411Z,72.17
2018-04-14T12:16:12.942Z,73.29
2018-04-14T12:18:40.488Z,75.30
2018-04-14T12:21:08.194Z,76.51
2018-04-14T12:23:35.744Z,77.68
2018-04-14T12:26:03.306Z,77.89
2018-04-14T12:28:31.103Z,79.23
2018-04-14T12:30:58.689Z,79.12
2018-04-14T12:33:26.210Z,80.53
2018-04-14T12:35:53.777Z,81.45
2018-04-14T12:38:21.314Z,80.76
2018-04-14T12:40:48.917Z,80.99
2018-04-14T12:43:16.457Z,81.06
2018-04-14T12:45:43.966Z,80.96
2018-04-14T12:48:11.510Z,81.35
2018-04-14T12:50:39.132Z,81.62
2018-04-14T12:53:06.816Z,81.64
2018-04-14T12:55:35.537Z,82.05
2018-04-14T12:58:03.075Z,81.84
2018-04-14T13:00:31.981Z,80.84
2018-04-14T13:02:59.596Z,78.66
2018-04-14T13:05:27.175Z,78.63
2018-04-14T13:07:54.971Z,78.75
2018-04-14T13:10:22.621Z,79.84
2018-04-14T13:12:50.160Z,80.23
2018-04-14T13:15:17.677Z,80.90
2018-04-14T13:17:45.297Z,79.61
2018-04-14T13:20:12.927Z,77.64
2018-04-14T13:22:40.558Z,75.55
2018-04-14T13:25:08.129Z,74.08
2018-04-14T13:27:35.739Z,71.80
2018-04-14T13:30:03.283Z,68.25
2018-04-14T13:32:31.134Z,63.26
2018-04-14T13:34:59.073Z,64.72
2018-04-14T13:37:26.595Z,61.74
2018-04-14T13:39:54.145Z,61.17
2018-04-14T13:42:21.950Z,57.84
2018-04-14T13:44:49.515Z,57.83
2018-04-14T13:47:17.116Z,58.33
2018-04-14T13:49:44.624Z,59.30
2018-04-14T13:52:12.397Z,60.18
2018-04-14T13:54:39.924Z,59.76
2018-04-14T13:57:07.487Z,60.26
2018-04-14T13:59:35.284Z,58.39
2018-04-14T14:02:02.982Z,60.52
2018-04-14T14:04:30.485Z,58.27
2018-04-14T14:06:58.024Z,58.90
2018-04-14T14:09:25.580Z,58.50
2018-04-14T14:11:53.163Z,59.78
2018-04-14T14:14:20.826Z,57.01
2018-04-14T14:16:48.617Z,57.70
2018-04-14T14:19:16.401Z,56.90
2018-04-14T14:21:43.980Z,54.49
2018-04-14T14:24:11.499Z,52.32
2018-04-14T14:26:39.040Z,50.97
2018-04-14T14:29:06.563Z,50.08
2018-04-14T14:31:34.167Z,51.01
2018-04-14T14:34:01.689Z,51.62
2018-04-14T14:36:29.514Z,50.53
2018-04-14T14:38:57.008Z,50.12
2018-04-14T14:41:24.543Z,51.96
2018-04-14T14:43:52.095Z,54.37
2018-04-14T14:46:19.631Z,56.26
2018-04-14T14:48:47.425Z,57.46
2018-04-14T14:51:14.944Z,59.34
2018-04-14T14:53:42.492Z,58.30
2018-04-14T14:56:10.088Z,57.37
2018-04-14T14:58:37.643Z,54.54
2018-04-14T15:01:05.211Z,51.15
2018-04-14T15:03:32.745Z,51.50
2018-04-14T15:06:00.302Z,49.24
2018-04-14T15:08:27.816Z,49.55
2018-04-14T15:10:55.425Z,49.84
2018-04-14T15:13:23.447Z,47.87
2018-04-14T15:15:50.996Z,49.18
2018-04-14T15:18:18.687Z,49.36
2018-04-14T15:20:46.224Z,50.92
2018-04-14T15:23:13.738Z,51.77
2018-04-14T15:25:41.246Z,53.75
2018-04-14T15:28:08.823Z,53.23
2018-04-14T15:30:36.341Z,52.95
2018-04-14T15:33:03.876Z,52.37
2018-04-14T15:35:31.394Z,53.31
2018-04-14T15:37:58.955Z,54.64
2018-04-14T15:40:26.571Z,54.98
2018-04-14T15:42:54.072Z,54.89
2018-04-14T15:45:21.593Z,55.33
2018-04-14T15:47:49.429Z,55.90
2018-04-14T15:50:17.043Z,56.11
2018-04-14T15:52:44.593Z,57.22
2018-04-14T15:55:12.289Z,57.93
2018-04-14T15:57:39.956Z,58.39
2018-04-14T16:00:07.531Z,57.59
2018-04-14T16:02:35.081Z,55.93
2018-04-14T16:05:02.634Z,56.88
2018-04-14T16:07:30.323Z,56.23
2018-04-14T16:09:57.840Z,56.24
2018-04-14T16:12:25.540Z,56.57
2018-04-14T16:14:53.476Z,56.73
2018-04-14T16:17:21.024Z,56.08
2018-04-14T16:19:48.611Z,57.07
2018-04-14T16:22:16.162Z,58.17
2018-04-14T16:24:43.698Z,55.63
2018-04-14T16:27:11.225Z,56.85
2018-04-14T16:29:38.819Z,56.96
2018-04-14T16:32:06.379Z,56.44
2018-04-14T16:34:34.621Z,56.74
2018-04-14T16:37:02.357Z,57.29
2018-04-14T16:39:29.896Z,57.27
2018-04-14T16:41:57.481Z,57.79
2018-04-14T16:44:25.020Z,58.93
2018-04-14T16:46:52.586Z,59.10
2018-04-14T16:49:20.201Z,58.72
2018-04-14T16:51:47.746Z,58.02
2018-04-14T16:54:15.276Z,58.63
2018-04-14T16:56:42.826Z,56.95
2018-04-14T16:59:14.197Z,56.93
2018-04-14T17:01:41.715Z,57.67
2018-04-14T17:04:09.302Z,58.87
2018-04-14T17:06:37.170Z,58.61
2018-04-14T17:09:05.320Z,57.73
2018-04-14T17:11:32.887Z,58.48
2018-04-14T17:14:00.446Z,58.69
2018-04-14T17:16:27.982Z,58.78
2018-04-14T17:18:55.804Z,59.45
2018-04-14T17:21:23.670Z,59.01
2018-04-14T17:23:51.284Z,59.76
2018-04-14T17:26:18.821Z,60.50
2018-04-14T17:28:46.377Z,60.60
2018-04-14T17:31:14.294Z,60.56
2018-04-14T17:33:41.890Z,60.88
2018-04-14T17:36:09.734Z,61.47
2018-04-14T17:38:37.371Z,62.73
2018-04-14T17:41:05.181Z,62.26
2018-04-14T17:43:33.044Z,62.19
2018-04-14T17:46:00.681Z,62.96
2018-04-14T17:48:28.270Z,63.62
2018-04-14T17:50:55.824Z,63.86
2018-04-14T17:53:23.346Z,64.49
2018-04-14T17:55:51.118Z,64.39
2018-04-14T17:58:18.663Z,64.71
2018-04-14T18:00:46.218Z,64.86
2018-04-14T18:03:14.176Z,66.57
2018-04-14T18:05:41.723Z,66.45
2018-04-14T18:08:09.567Z,66.30
2018-04-14T18:10:37.067Z,66.13
2018-04-14T18:13:04.647Z,66.68
2018-04-14T18:15:32.259Z,65.64
2018-04-14T18:17:59.769Z,66.36
2018-04-14T18:20:27.364Z,66.58
2018-04-14T18:22:55.128Z,66.77
2018-04-14T18:25:22.727Z,67.16
2018-04-14T18:27:50.255Z,67.43
2018-04-14T18:30:17.781Z,67.21
2018-04-14T18:32:45.425Z,67.29
2018-04-14T18:35:12.923Z,67.46
2018-04-14T18:37:40.626Z,67.41
2018-04-14T18:40:08.142Z,67.47
2018-04-14T18:42:35.709Z,67.96
2018-04-14T18:45:03.263Z,68.34
2018-04-14T18:47:30.764Z,68.70
2018-04-14T18:49:58.606Z,67.95
2018-04-14T18:52:26.137Z,68.97
2018-04-14T18:54:53.650Z,69.03
2018-04-14T18:57:21.241Z,69.21
2018-04-14T18:59:48.769Z,69.87
2018-04-14T19:02:16.293Z,70.47
2018-04-14T19:04:43.856Z,70.66
2018-04-14T19:07:11.502Z,70.25
2018-04-14T19:09:39.079Z,70.72
2018-04-14T19:12:06.636Z,70.81
2018-04-14T19:14:34.231Z,70.68
2018-04-14T19:17:01.826Z,70.85
2018-04-14T19:19:29.447Z,70.87
2018-04-14T19:21:56.968Z,70.31
2018-04-14T19:24:24.551Z,70.66
2018-04-14T19:26:52.142Z,70.69
2018-04-14T19:29:19.659Z,71.21
2018-04-14T19:31:47.182Z,71.27
2018-04-14T19:34:14.826Z,71.47
2018-04-14T19:36:42.337Z,71.79
2018-04-14T19:39:09.857Z,71.68
2018-04-14T19:41:37.528Z,71.68
2018-04-14T19:44:05.122Z,71.29
2018-04-14T19:46:32.648Z,71.55
2018-04-14T19:49:00.178Z,72.13
2018-04-14T19:51:27.781Z,72.29
2018-04-14T19:53:55.598Z,72.17
2018-04-14T19:56:23.593Z,72.42
2018-04-14T19:58:51.139Z,72.63
2018-04-14T20:01:18.787Z,72.37
2018-04-14T20:03:46.330Z,72.68
2018-04-14T20:06:13.860Z,73.20
2018-04-14T20:08:41.451Z,73.21
2018-04-14T20:11:09.254Z,73.60
2018-04-14T20:13:36.798Z,73.59
2018-04-14T20:16:04.335Z,73.70
2018-04-14T20:18:31.915Z,73.86
2018-04-14T20:20:59.440Z,73.52
2018-04-14T20:23:26.983Z,73.40
2018-04-14T20:25:54.807Z,73.68
2018-04-14T20:28:22.457Z,73.50
2018-04-14T20:30:50.238Z,73.88
2018-04-14T20:33:17.756Z,73.92
2018-04-14T20:35:45.449Z,74.20
2018-04-14T20:38:13.338Z,74.42
2018-04-14T20:40:40.867Z,74.39
2018-04-14T20:43:08.386Z,73.93
2018-04-14T20:45:36.052Z,74.21
2018-04-14T20:48:03.579Z,73.73
2018-04-14T20:50:31.221Z,73.65
2018-04-14T20:52:59.604Z,74.41
2018-04-14T20:55:27.255Z,74.22
2018-04-14T20:57:54.794Z,74.08
2018-04-14T21:00:22.822Z,73.91
2018-04-14T21:02:50.602Z,73.79
2018-04-14T21:05:18.284Z,74.06
2018-04-14T21:07:45.986Z,74.64
2018-04-14T21:10:13.540Z,74.67
2018-04-14T21:12:41.173Z,75.22
2018-04-14T21:15:08.700Z,74.60
2018-04-14T21:17:36.263Z,75.04
2018-04-14T21:20:03.830Z,74.67
2018-04-14T21:22:31.364Z,74.90
2018-04-14T21:24:58.927Z,74.60
2018-04-14T21:27:26.563Z,74.83
2018-04-14T21:29:54.092Z,75.24
2018-04-14T21:32:21.624Z,75.22
2018-04-14T21:34:49.255Z,75.03
2018-04-14T21:37:16.792Z,75.29
2018-04-14T21:39:44.489Z,75.05
2018-04-14T21:42:12.197Z,75.04
2018-04-14T21:44:39.794Z,75.11
2018-04-14T21:47:07.868Z,75.49
2018-04-14T21:49:35.466Z,75.39
2018-04-14T21:52:03.008Z,75.79
2018-04-14T21:54:30.634Z,75.26
2018-04-14T21:56:58.272Z,75.57
2018-04-14T21:59:26.098Z,75.52
2018-04-14T22:01:53.634Z,75.37
2018-04-14T22:04:21.145Z,75.82
2018-04-14T22:06:48.670Z,75.99
2018-04-14T22:09:16.232Z,76.39
2018-04-14T22:11:44.756Z,76.54
2018-04-14T22:14:24.190Z,76.55
2018-04-14T22:16:51.797Z,76.55
2018-04-14T22:19:19.316Z,76.75
2018-04-14T22:21:46.866Z,77.26
2018-04-14T22:24:14.426Z,77.35
2018-04-14T22:26:42.089Z,77.56
2018-04-14T22:29:09.588Z,77.91
2018-04-14T22:31:37.115Z,78.15
2018-04-14T22:34:04.666Z,78.08
2018-04-14T22:36:32.236Z,78.13
2018-04-14T22:38:59.785Z,78.74
2018-04-14T22:41:27.353Z,79.00
2018-04-14T22:43:55.215Z,78.95
2018-04-14T22:46:22.752Z,78.81
2018-04-14T22:48:50.338Z,79.15
2018-04-14T22:51:17.925Z,79.07
2018-04-14T22:53:45.450Z,79.21
2018-04-14T22:56:13.116Z,79.43
2018-04-14T22:58:40.703Z,79.56
2018-04-14T23:01:08.238Z,79.38
2018-04-14T23:03:35.785Z,79.46
2018-04-14T23:06:03.553Z,79.64
2018-04-14T23:08:31.079Z,79.61
2018-04-14T23:10:58.700Z,79.56
2018-04-14T23:13:26.273Z,79.61
2018-04-14T23:15:53.868Z,79.61
2018-04-14T23:18:21.386Z,79.61
2018-04-14T23:20:48.896Z,80.15
2018-04-14T23:23:16.474Z,79.95
2018-04-14T23:25:43.999Z,79.95
2018-04-14T23:28:11.729Z,80.48
2018-04-14T23:30:39.261Z,80.02
2018-04-14T23:33:06.791Z,80.07
2018-04-14T23:35:34.443Z,80.05
2018-04-14T23:38:01.965Z,80.22
2018-04-14T23:40:29.499Z,80.32
2018-04-14T23:42:57.018Z,80.33
2018-04-14T23:45:24.547Z,79.88
2018-04-14T23:47:52.079Z,79.82
2018-04-14T23:50:19.593Z,80.09
2018-04-14T23:52:47.133Z,80.28
2018-04-14T23:55:14.655Z,80.01
2018-04-14T23:57:42.182Z,80.67
